sensor_id;sensor_type;location;lat;lon;timestamp;temperature;humidity
19003;DHT22;9634;51.040;13.794;2022-12-17T00:01:08;-2.30;99.90
19003;DHT22;9634;51.040;13.794;2022-12-17T00:06:28;-2.40;99.90
19003;DHT22;9634;51.040;13.794;2022-12-17T00:11:48;-2.50;1.00
19003;DHT22;9634;51.040;13.794;2022-12-17T00:17:10;-2.50;1.00
19003;DHT22;9634;51.040;13.794;2022-12-17T00:22:29;-2.40;1.00
19003;DHT22;9634;51.040;13.794;2022-12-17T00:27:57;-2.50;1.00
19003;DHT22;9634;51.040;13.794;2022-12-17T00:33:18;-2.50;1.00
19003;DHT22;9634;51.040;13.794;2022-12-17T00:38:34;-2.50;1.00
19003;DHT22;9634;51.040;13.794;2022-12-17T00:43:54;-2.50;1.00
19003;DHT22;9634;51.040;13.794;2022-12-17T00:49:15;-2.50;1.00
19003;DHT22;9634;51.040;13.794;2022-12-17T00:54:35;-2.60;1.00
19003;DHT22;9634;51.040;13.794;2022-12-17T00:59:54;-2.60;1.00
19003;DHT22;9634;51.040;13.794;2022-12-17T01:05:15;-2.60;1.00
19003;DHT22;9634;51.040;13.794;2022-12-17T01:10:36;-2.50;1.00
19003;DHT22;9634;51.040;13.794;2022-12-17T01:16:01;-2.50;1.00
19003;DHT22;9634;51.040;13.794;2022-12-17T01:21:22;-2.50;1.00
19003;DHT22;9634;51.040;13.794;2022-12-17T01:26:41;-2.50;1.00
19003;DHT22;9634;51.040;13.794;2022-12-17T01:32:01;-2.40;1.00
19003;DHT22;9634;51.040;13.794;2022-12-17T01:37:25;-2.40;1.00
19003;DHT22;9634;51.040;13.794;2022-12-17T01:42:45;-2.40;1.00
19003;DHT22;9634;51.040;13.794;2022-12-17T01:48:10;-2.30;1.00
19003;DHT22;9634;51.040;13.794;2022-12-17T01:53:34;-2.30;1.00
19003;DHT22;9634;51.040;13.794;2022-12-17T01:58:55;-2.20;1.00
19003;DHT22;9634;51.040;13.794;2022-12-17T02:04:15;-2.20;1.00
19003;DHT22;9634;51.040;13.794;2022-12-17T02:09:43;-2.10;1.00
19003;DHT22;9634;51.040;13.794;2022-12-17T02:15:12;-2.10;1.00
19003;DHT22;9634;51.040;13.794;2022-12-17T02:20:38;-2.00;1.00
19003;DHT22;9634;51.040;13.794;2022-12-17T02:26:08;-2.00;1.00
19003;DHT22;9634;51.040;13.794;2022-12-17T02:31:31;-2.00;1.00
19003;DHT22;9634;51.040;13.794;2022-12-17T02:36:52;-2.00;1.00
19003;DHT22;9634;51.040;13.794;2022-12-17T02:42:12;-2.00;1.00
19003;DHT22;9634;51.040;13.794;2022-12-17T02:47:34;-1.90;1.00
19003;DHT22;9634;51.040;13.794;2022-12-17T02:52:57;-2.00;1.00
19003;DHT22;9634;51.040;13.794;2022-12-17T02:58:17;-2.00;1.00
19003;DHT22;9634;51.040;13.794;2022-12-17T03:03:37;-2.00;1.00
19003;DHT22;9634;51.040;13.794;2022-12-17T03:08:57;-2.00;1.00
19003;DHT22;9634;51.040;13.794;2022-12-17T03:14:17;-2.00;1.00
19003;DHT22;9634;51.040;13.794;2022-12-17T03:19:38;-2.00;1.00
19003;DHT22;9634;51.040;13.794;2022-12-17T03:24:54;-2.00;1.00
19003;DHT22;9634;51.040;13.794;2022-12-17T03:30:13;-2.00;1.00
19003;DHT22;9634;51.040;13.794;2022-12-17T03:35:34;-2.00;1.00
19003;DHT22;9634;51.040;13.794;2022-12-17T03:40:54;-2.00;1.00
19003;DHT22;9634;51.040;13.794;2022-12-17T03:46:16;-1.90;1.00
19003;DHT22;9634;51.040;13.794;2022-12-17T03:51:39;-1.80;1.00
19003;DHT22;9634;51.040;13.794;2022-12-17T03:56:59;-1.80;1.00
19003;DHT22;9634;51.040;13.794;2022-12-17T04:02:18;-1.80;1.00
19003;DHT22;9634;51.040;13.794;2022-12-17T04:07:54;-1.90;1.00
19003;DHT22;9634;51.040;13.794;2022-12-17T04:13:13;-2.00;1.00
19003;DHT22;9634;51.040;13.794;2022-12-17T04:18:35;-1.90;1.00
19003;DHT22;9634;51.040;13.794;2022-12-17T04:23:56;-1.80;1.00
19003;DHT22;9634;51.040;13.794;2022-12-17T04:29:16;-1.90;1.00
19003;DHT22;9634;51.040;13.794;2022-12-17T04:34:35;-1.80;1.00
19003;DHT22;9634;51.040;13.794;2022-12-17T04:39:56;-1.80;1.00
19003;DHT22;9634;51.040;13.794;2022-12-17T04:45:15;-1.70;1.00
19003;DHT22;9634;51.040;13.794;2022-12-17T04:50:49;-1.70;1.00
19003;DHT22;9634;51.040;13.794;2022-12-17T04:56:10;-1.70;1.00
19003;DHT22;9634;51.040;13.794;2022-12-17T05:01:30;-1.60;1.00
19003;DHT22;9634;51.040;13.794;2022-12-17T05:06:49;-1.60;1.00
19003;DHT22;9634;51.040;13.794;2022-12-17T05:12:10;-1.60;1.00
19003;DHT22;9634;51.040;13.794;2022-12-17T05:17:30;-1.60;1.00
19003;DHT22;9634;51.040;13.794;2022-12-17T05:22:52;-1.60;1.00
19003;DHT22;9634;51.040;13.794;2022-12-17T05:28:14;-1.60;1.00
19003;DHT22;9634;51.040;13.794;2022-12-17T05:33:33;-1.50;1.00
19003;DHT22;9634;51.040;13.794;2022-12-17T05:38:52;-1.50;1.00
19003;DHT22;9634;51.040;13.794;2022-12-17T05:44:13;-1.50;1.00
19003;DHT22;9634;51.040;13.794;2022-12-17T05:49:32;-1.40;1.00
19003;DHT22;9634;51.040;13.794;2022-12-17T05:54:52;-1.40;1.00
19003;DHT22;9634;51.040;13.794;2022-12-17T06:00:13;-1.40;1.00
19003;DHT22;9634;51.040;13.794;2022-12-17T06:05:33;-1.40;1.00
19003;DHT22;9634;51.040;13.794;2022-12-17T06:11:04;-1.30;1.00
19003;DHT22;9634;51.040;13.794;2022-12-17T06:16:25;-1.40;1.00
19003;DHT22;9634;51.040;13.794;2022-12-17T06:21:45;-1.30;1.00
19003;DHT22;9634;51.040;13.794;2022-12-17T06:27:04;-1.20;1.00
19003;DHT22;9634;51.040;13.794;2022-12-17T06:32:25;-1.20;1.00
19003;DHT22;9634;51.040;13.794;2022-12-17T06:37:45;-1.20;1.00
19003;DHT22;9634;51.040;13.794;2022-12-17T06:43:05;-1.10;1.00
19003;DHT22;9634;51.040;13.794;2022-12-17T06:48:25;-1.10;1.00
19003;DHT22;9634;51.040;13.794;2022-12-17T06:53:47;-1.10;1.00
19003;DHT22;9634;51.040;13.794;2022-12-17T06:59:07;-1.00;1.00
19003;DHT22;9634;51.040;13.794;2022-12-17T07:04:28;-1.10;1.00
19003;DHT22;9634;51.040;13.794;2022-12-17T07:09:48;-1.00;1.00
19003;DHT22;9634;51.040;13.794;2022-12-17T07:15:08;-1.00;1.00
19003;DHT22;9634;51.040;13.794;2022-12-17T07:20:29;-0.90;1.00
19003;DHT22;9634;51.040;13.794;2022-12-17T07:25:49;-0.80;1.00
19003;DHT22;9634;51.040;13.794;2022-12-17T07:31:08;-0.80;1.00
19003;DHT22;9634;51.040;13.794;2022-12-17T07:36:29;-0.60;99.90
19003;DHT22;9634;51.040;13.794;2022-12-17T07:41:49;-0.60;99.90
19003;DHT22;9634;51.040;13.794;2022-12-17T07:47:08;-0.60;99.90
19003;DHT22;9634;51.040;13.794;2022-12-17T07:52:29;-0.60;99.90
19003;DHT22;9634;51.040;13.794;2022-12-17T07:57:57;-0.50;99.90
19003;DHT22;9634;51.040;13.794;2022-12-17T08:03:16;-0.40;1.00
19003;DHT22;9634;51.040;13.794;2022-12-17T08:08:37;-0.40;58.30
19003;DHT22;9634;51.040;13.794;2022-12-17T08:13:57;-0.40;99.90
19003;DHT22;9634;51.040;13.794;2022-12-17T08:19:16;-0.30;99.90
19003;DHT22;9634;51.040;13.794;2022-12-17T08:24:52;0.00;1.00
19003;DHT22;9634;51.040;13.794;2022-12-17T08:30:12;0.00;99.90
19003;DHT22;9634;51.040;13.794;2022-12-17T08:35:32;0.10;99.90
19003;DHT22;9634;51.040;13.794;2022-12-17T08:40:53;0.20;1.00
19003;DHT22;9634;51.040;13.794;2022-12-17T08:46:13;0.20;1.00
19003;DHT22;9634;51.040;13.794;2022-12-17T08:51:33;0.20;99.90
19003;DHT22;9634;51.040;13.794;2022-12-17T08:56:54;0.10;99.90
19003;DHT22;9634;51.040;13.794;2022-12-17T09:02:14;0.10;1.00
19003;DHT22;9634;51.040;13.794;2022-12-17T09:07:33;0.20;1.00
19003;DHT22;9634;51.040;13.794;2022-12-17T09:12:54;0.20;1.00
19003;DHT22;9634;51.040;13.794;2022-12-17T09:18:17;0.10;1.00
19003;DHT22;9634;51.040;13.794;2022-12-17T09:23:37;0.10;99.90
19003;DHT22;9634;51.040;13.794;2022-12-17T09:28:58;-0.10;1.00
19003;DHT22;9634;51.040;13.794;2022-12-17T09:34:18;-0.10;1.00
19003;DHT22;9634;51.040;13.794;2022-12-17T09:39:37;0.00;1.00
19003;DHT22;9634;51.040;13.794;2022-12-17T09:45:02;0.10;1.00
19003;DHT22;9634;51.040;13.794;2022-12-17T09:50:24;0.30;1.00
19003;DHT22;9634;51.040;13.794;2022-12-17T09:55:46;0.30;99.90
19003;DHT22;9634;51.040;13.794;2022-12-17T10:01:15;0.30;99.90
19003;DHT22;9634;51.040;13.794;2022-12-17T10:06:35;0.30;1.00
19003;DHT22;9634;51.040;13.794;2022-12-17T10:11:55;0.40;99.90
19003;DHT22;9634;51.040;13.794;2022-12-17T10:17:18;0.20;99.90
19003;DHT22;9634;51.040;13.794;2022-12-17T10:22:42;0.20;1.00
19003;DHT22;9634;51.040;13.794;2022-12-17T10:28:04;0.30;1.00
19003;DHT22;9634;51.040;13.794;2022-12-17T10:33:26;0.10;1.00
19003;DHT22;9634;51.040;13.794;2022-12-17T10:38:57;0.10;1.00
19003;DHT22;9634;51.040;13.794;2022-12-17T10:44:21;0.20;1.00
19003;DHT22;9634;51.040;13.794;2022-12-17T10:49:42;0.30;1.00
19003;DHT22;9634;51.040;13.794;2022-12-17T10:55:04;0.30;1.00
19003;DHT22;9634;51.040;13.794;2022-12-17T11:00:39;0.40;1.00
19003;DHT22;9634;51.040;13.794;2022-12-17T11:06:00;0.60;1.00
19003;DHT22;9634;51.040;13.794;2022-12-17T11:11:20;0.60;1.00
19003;DHT22;9634;51.040;13.794;2022-12-17T11:16:43;0.60;1.00
19003;DHT22;9634;51.040;13.794;2022-12-17T11:22:15;0.50;1.00
19003;DHT22;9634;51.040;13.794;2022-12-17T11:27:41;0.50;1.00
19003;DHT22;9634;51.040;13.794;2022-12-17T11:33:08;0.40;1.00
19003;DHT22;9634;51.040;13.794;2022-12-17T11:38:37;0.40;1.00
19003;DHT22;9634;51.040;13.794;2022-12-17T11:44:02;0.70;1.00
19003;DHT22;9634;51.040;13.794;2022-12-17T11:49:32;1.00;99.90
19003;DHT22;9634;51.040;13.794;2022-12-17T11:54:58;1.00;1.00
19003;DHT22;9634;51.040;13.794;2022-12-17T12:00:22;1.00;1.00
19003;DHT22;9634;51.040;13.794;2022-12-17T12:05:48;1.10;1.00
19003;DHT22;9634;51.040;13.794;2022-12-17T12:11:21;1.20;1.00
19003;DHT22;9634;51.040;13.794;2022-12-17T12:16:49;1.30;1.00
19003;DHT22;9634;51.040;13.794;2022-12-17T12:22:16;1.60;99.90
19003;DHT22;9634;51.040;13.794;2022-12-17T12:27:48;1.70;1.00
19003;DHT22;9634;51.040;13.794;2022-12-17T12:33:20;1.70;99.90
19003;DHT22;9634;51.040;13.794;2022-12-17T12:38:43;1.70;99.90
19003;DHT22;9634;51.040;13.794;2022-12-17T12:44:15;1.50;1.00
19003;DHT22;9634;51.040;13.794;2022-12-17T12:49:41;1.60;1.00
19003;DHT22;9634;51.040;13.794;2022-12-17T12:55:03;1.70;99.90
19003;DHT22;9634;51.040;13.794;2022-12-17T13:00:27;1.70;1.00
19003;DHT22;9634;51.040;13.794;2022-12-17T13:05:47;1.80;99.90
19003;DHT22;9634;51.040;13.794;2022-12-17T13:10:50;1.70;99.90
19003;DHT22;9634;51.040;13.794;2022-12-17T13:15:56;1.60;1.00
19003;DHT22;9634;51.040;13.794;2022-12-17T13:21:02;1.50;99.90
19003;DHT22;9634;51.040;13.794;2022-12-17T13:26:17;1.40;1.00
19003;DHT22;9634;51.040;13.794;2022-12-17T13:31:25;1.30;1.00
19003;DHT22;9634;51.040;13.794;2022-12-17T13:36:33;1.10;99.90
19003;DHT22;9634;51.040;13.794;2022-12-17T13:41:37;0.90;1.00
19003;DHT22;9634;51.040;13.794;2022-12-17T13:46:43;0.70;99.90
19003;DHT22;9634;51.040;13.794;2022-12-17T13:51:46;0.60;1.00
19003;DHT22;9634;51.040;13.794;2022-12-17T13:56:48;0.60;1.00
19003;DHT22;9634;51.040;13.794;2022-12-17T14:01:53;0.60;1.00
19003;DHT22;9634;51.040;13.794;2022-12-17T14:06:57;0.50;1.00
19003;DHT22;9634;51.040;13.794;2022-12-17T14:12:02;0.60;1.00
19003;DHT22;9634;51.040;13.794;2022-12-17T14:17:26;0.60;1.00
19003;DHT22;9634;51.040;13.794;2022-12-17T14:22:32;0.60;99.90
19003;DHT22;9634;51.040;13.794;2022-12-17T14:27:36;0.60;1.00
19003;DHT22;9634;51.040;13.794;2022-12-17T14:32:42;0.40;1.00
19003;DHT22;9634;51.040;13.794;2022-12-17T14:37:45;0.30;1.00
19003;DHT22;9634;51.040;13.794;2022-12-17T14:42:48;0.10;99.90
19003;DHT22;9634;51.040;13.794;2022-12-17T14:47:54;0.00;1.00
19003;DHT22;9634;51.040;13.794;2022-12-17T14:52:58;-0.10;1.00
19003;DHT22;9634;51.040;13.794;2022-12-17T14:58:16;-0.10;1.00
19003;DHT22;9634;51.040;13.794;2022-12-17T15:03:23;-0.10;1.00
19003;DHT22;9634;51.040;13.794;2022-12-17T15:08:29;-0.10;1.00
19003;DHT22;9634;51.040;13.794;2022-12-17T15:13:35;-0.20;1.00
19003;DHT22;9634;51.040;13.794;2022-12-17T15:18:39;-0.10;1.00
19003;DHT22;9634;51.040;13.794;2022-12-17T15:23:42;-0.10;1.00
19003;DHT22;9634;51.040;13.794;2022-12-17T15:28:45;-0.20;1.00
19003;DHT22;9634;51.040;13.794;2022-12-17T15:33:49;-0.20;1.00
19003;DHT22;9634;51.040;13.794;2022-12-17T15:38:51;-0.10;1.00
19003;DHT22;9634;51.040;13.794;2022-12-17T15:43:53;-0.20;1.00
19003;DHT22;9634;51.040;13.794;2022-12-17T15:48:57;-0.20;99.90
19003;DHT22;9634;51.040;13.794;2022-12-17T15:53:59;-0.30;1.00
19003;DHT22;9634;51.040;13.794;2022-12-17T15:59:01;-0.70;99.90
19003;DHT22;9634;51.040;13.794;2022-12-17T16:04:05;-0.90;99.90
19003;DHT22;9634;51.040;13.794;2022-12-17T16:09:07;-1.10;1.00
19003;DHT22;9634;51.040;13.794;2022-12-17T16:14:09;-1.20;1.00
19003;DHT22;9634;51.040;13.794;2022-12-17T16:19:13;-1.10;1.00
19003;DHT22;9634;51.040;13.794;2022-12-17T16:24:15;-1.00;1.00
19003;DHT22;9634;51.040;13.794;2022-12-17T16:29:17;-0.90;1.00
19003;DHT22;9634;51.040;13.794;2022-12-17T16:34:21;-1.00;1.00
19003;DHT22;9634;51.040;13.794;2022-12-17T16:39:23;-1.00;1.00
19003;DHT22;9634;51.040;13.794;2022-12-17T16:44:25;-1.00;1.00
19003;DHT22;9634;51.040;13.794;2022-12-17T16:49:29;-1.00;1.00
19003;DHT22;9634;51.040;13.794;2022-12-17T16:54:31;-0.90;1.00
19003;DHT22;9634;51.040;13.794;2022-12-17T16:59:34;-1.00;99.90
19003;DHT22;9634;51.040;13.794;2022-12-17T17:04:37;-1.30;1.00
19003;DHT22;9634;51.040;13.794;2022-12-17T17:09:40;-1.80;1.00
19003;DHT22;9634;51.040;13.794;2022-12-17T17:14:42;-2.20;1.00
19003;DHT22;9634;51.040;13.794;2022-12-17T17:19:46;-2.50;1.00
19003;DHT22;9634;51.040;13.794;2022-12-17T17:24:48;-2.50;1.00
19003;DHT22;9634;51.040;13.794;2022-12-17T17:29:50;-2.50;1.00
19003;DHT22;9634;51.040;13.794;2022-12-17T17:34:54;-2.40;1.00
19003;DHT22;9634;51.040;13.794;2022-12-17T17:39:56;-2.20;1.00
19003;DHT22;9634;51.040;13.794;2022-12-17T17:44:58;-1.90;1.00
19003;DHT22;9634;51.040;13.794;2022-12-17T17:50:02;-1.70;1.00
19003;DHT22;9634;51.040;13.794;2022-12-17T17:55:05;-1.50;1.00
19003;DHT22;9634;51.040;13.794;2022-12-17T18:00:09;-1.30;1.00
19003;DHT22;9634;51.040;13.794;2022-12-17T18:05:16;-1.20;1.00
19003;DHT22;9634;51.040;13.794;2022-12-17T18:10:19;-1.20;1.00
19003;DHT22;9634;51.040;13.794;2022-12-17T18:15:21;-1.50;1.00
19003;DHT22;9634;51.040;13.794;2022-12-17T18:20:24;-1.80;1.00
19003;DHT22;9634;51.040;13.794;2022-12-17T18:25:26;-2.20;1.00
19003;DHT22;9634;51.040;13.794;2022-12-17T18:30:29;-2.70;1.00
19003;DHT22;9634;51.040;13.794;2022-12-17T18:35:32;-3.00;1.00
19003;DHT22;9634;51.040;13.794;2022-12-17T18:40:35;-3.30;19.30
19003;DHT22;9634;51.040;13.794;2022-12-17T18:45:37;-3.50;58.90
19003;DHT22;9634;51.040;13.794;2022-12-17T18:50:41;-3.60;99.90
19003;DHT22;9634;51.040;13.794;2022-12-17T18:55:43;-3.60;99.90
19003;DHT22;9634;51.040;13.794;2022-12-17T19:00:45;-3.70;99.90
19003;DHT22;9634;51.040;13.794;2022-12-17T19:05:50;-4.00;99.90
19003;DHT22;9634;51.040;13.794;2022-12-17T19:10:54;-4.00;99.90
19003;DHT22;9634;51.040;13.794;2022-12-17T19:15:56;-4.00;99.90
19003;DHT22;9634;51.040;13.794;2022-12-17T19:21:00;-4.20;99.90
19003;DHT22;9634;51.040;13.794;2022-12-17T19:26:07;-4.30;99.90
19003;DHT22;9634;51.040;13.794;2022-12-17T19:31:10;-4.40;99.90
19003;DHT22;9634;51.040;13.794;2022-12-17T19:36:16;-4.50;99.90
19003;DHT22;9634;51.040;13.794;2022-12-17T19:41:19;-4.70;99.90
19003;DHT22;9634;51.040;13.794;2022-12-17T19:46:22;-4.80;99.90
19003;DHT22;9634;51.040;13.794;2022-12-17T19:51:28;-4.80;99.90
19003;DHT22;9634;51.040;13.794;2022-12-17T19:56:31;-4.90;99.90
19003;DHT22;9634;51.040;13.794;2022-12-17T20:01:35;-4.90;99.90
19003;DHT22;9634;51.040;13.794;2022-12-17T20:06:39;-5.00;99.90
19003;DHT22;9634;51.040;13.794;2022-12-17T20:11:41;-4.90;99.90
19003;DHT22;9634;51.040;13.794;2022-12-17T20:16:47;-4.90;99.90
19003;DHT22;9634;51.040;13.794;2022-12-17T20:21:52;-5.10;99.90
19003;DHT22;9634;51.040;13.794;2022-12-17T20:26:55;-5.20;99.90
19003;DHT22;9634;51.040;13.794;2022-12-17T20:31:57;-5.30;99.90
19003;DHT22;9634;51.040;13.794;2022-12-17T20:37:03;-5.30;99.90
19003;DHT22;9634;51.040;13.794;2022-12-17T20:42:06;-5.10;99.90
19003;DHT22;9634;51.040;13.794;2022-12-17T20:47:09;-5.10;99.90
19003;DHT22;9634;51.040;13.794;2022-12-17T20:52:12;-5.10;99.90
19003;DHT22;9634;51.040;13.794;2022-12-17T20:57:15;-4.90;99.90
19003;DHT22;9634;51.040;13.794;2022-12-17T21:02:17;-4.80;99.90
19003;DHT22;9634;51.040;13.794;2022-12-17T21:07:20;-5.00;99.90
19003;DHT22;9634;51.040;13.794;2022-12-17T21:12:23;-5.30;99.90
19003;DHT22;9634;51.040;13.794;2022-12-17T21:17:45;-5.40;99.90
19003;DHT22;9634;51.040;13.794;2022-12-17T21:22:48;-5.60;99.90
19003;DHT22;9634;51.040;13.794;2022-12-17T21:27:51;-5.60;99.90
19003;DHT22;9634;51.040;13.794;2022-12-17T21:32:54;-5.80;99.90
19003;DHT22;9634;51.040;13.794;2022-12-17T21:37:57;-5.70;99.90
19003;DHT22;9634;51.040;13.794;2022-12-17T21:42:59;-6.00;99.90
19003;DHT22;9634;51.040;13.794;2022-12-17T21:48:05;-6.30;99.90
19003;DHT22;9634;51.040;13.794;2022-12-17T21:53:10;-6.50;99.90
19003;DHT22;9634;51.040;13.794;2022-12-17T21:58:13;-6.60;99.90
19003;DHT22;9634;51.040;13.794;2022-12-17T22:03:16;-6.70;99.90
19003;DHT22;9634;51.040;13.794;2022-12-17T22:08:19;-6.70;99.90
19003;DHT22;9634;51.040;13.794;2022-12-17T22:13:22;-6.70;99.90
19003;DHT22;9634;51.040;13.794;2022-12-17T22:18:41;-6.80;99.90
19003;DHT22;9634;51.040;13.794;2022-12-17T22:23:46;-6.80;99.90
19003;DHT22;9634;51.040;13.794;2022-12-17T22:28:48;-6.90;99.90
19003;DHT22;9634;51.040;13.794;2022-12-17T22:33:50;-6.90;99.90
19003;DHT22;9634;51.040;13.794;2022-12-17T22:38:54;-6.90;99.90
19003;DHT22;9634;51.040;13.794;2022-12-17T22:43:59;-7.00;99.90
19003;DHT22;9634;51.040;13.794;2022-12-17T22:49:01;-6.90;99.90
19003;DHT22;9634;51.040;13.794;2022-12-17T22:54:05;-6.90;99.90
19003;DHT22;9634;51.040;13.794;2022-12-17T22:59:08;-6.80;99.90
19003;DHT22;9634;51.040;13.794;2022-12-17T23:04:12;-6.90;99.90
19003;DHT22;9634;51.040;13.794;2022-12-17T23:09:17;-7.00;99.90
19003;DHT22;9634;51.040;13.794;2022-12-17T23:14:20;-7.10;99.90
19003;DHT22;9634;51.040;13.794;2022-12-17T23:19:22;-7.20;99.90
19003;DHT22;9634;51.040;13.794;2022-12-17T23:24:26;-7.30;99.90
19003;DHT22;9634;51.040;13.794;2022-12-17T23:29:28;-7.40;99.90
19003;DHT22;9634;51.040;13.794;2022-12-17T23:34:30;-7.40;99.90
19003;DHT22;9634;51.040;13.794;2022-12-17T23:39:34;-7.30;99.90
19003;DHT22;9634;51.040;13.794;2022-12-17T23:44:36;-7.40;99.90
19003;DHT22;9634;51.040;13.794;2022-12-17T23:49:38;-7.50;99.90
19003;DHT22;9634;51.040;13.794;2022-12-17T23:54:42;-7.60;99.90
19003;DHT22;9634;51.040;13.794;2022-12-17T23:59:44;-7.70;99.90
